sensor_id;sensor_type;location;lat;lon;timestamp;P1;durP1;ratioP1;P2;durP2;ratioP2
26906;SDS011;14472;56.880;16.658;2023-04-15T06:13:26;6.97;;;4.23;;
26906;SDS011;14472;56.880;16.658;2023-04-15T06:15:52;5.63;;;4.40;;
26906;SDS011;14472;56.880;16.658;2023-04-15T06:18:18;5.17;;;4.43;;
26906;SDS011;14472;56.880;16.658;2023-04-15T06:20:44;4.67;;;4.10;;
26906;SDS011;14472;56.880;16.658;2023-04-15T06:23:10;8.97;;;4.20;;
26906;SDS011;14472;56.880;16.658;2023-04-15T06:25:39;6.17;;;4.80;;
26906;SDS011;14472;56.880;16.658;2023-04-15T06:28:05;5.73;;;4.20;;
26906;SDS011;14472;56.880;16.658;2023-04-15T06:30:31;6.30;;;4.10;;
26906;SDS011;14472;56.880;16.658;2023-04-15T06:32:57;7.43;;;4.10;;
26906;SDS011;14472;56.880;16.658;2023-04-15T06:35:26;6.93;;;4.77;;
26906;SDS011;14472;56.880;16.658;2023-04-15T06:37:51;8.07;;;4.37;;
26906;SDS011;14472;56.880;16.658;2023-04-15T06:40:18;6.07;;;4.77;;
26906;SDS011;14472;56.880;16.658;2023-04-15T06:42:44;6.40;;;4.30;;
26906;SDS011;14472;56.880;16.658;2023-04-15T06:45:10;5.67;;;4.27;;
26906;SDS011;14472;56.880;16.658;2023-04-15T06:47:36;7.97;;;4.40;;
26906;SDS011;14472;56.880;16.658;2023-04-15T06:50:02;7.03;;;4.30;;
26906;SDS011;14472;56.880;16.658;2023-04-15T06:52:28;5.20;;;3.90;;
26906;SDS011;14472;56.880;16.658;2023-04-15T06:54:53;5.57;;;4.07;;
26906;SDS011;14472;56.880;16.658;2023-04-15T06:57:19;6.93;;;4.10;;
26906;SDS011;14472;56.880;16.658;2023-04-15T06:59:45;7.23;;;4.00;;
26906;SDS011;14472;56.880;16.658;2023-04-15T07:02:11;5.47;;;4.13;;
26906;SDS011;14472;56.880;16.658;2023-04-15T07:04:38;6.67;;;4.43;;
26906;SDS011;14472;56.880;16.658;2023-04-15T07:07:04;4.73;;;4.03;;
26906;SDS011;14472;56.880;16.658;2023-04-15T07:09:30;7.77;;;4.40;;
26906;SDS011;14472;56.880;16.658;2023-04-15T07:11:56;4.30;;;3.70;;
26906;SDS011;14472;56.880;16.658;2023-04-15T07:14:22;5.83;;;4.03;;
26906;SDS011;14472;56.880;16.658;2023-04-15T07:16:47;6.47;;;4.57;;
26906;SDS011;14472;56.880;16.658;2023-04-15T07:19:13;6.53;;;3.90;;
26906;SDS011;14472;56.880;16.658;2023-04-15T07:21:39;6.30;;;3.87;;
26906;SDS011;14472;56.880;16.658;2023-04-15T07:24:05;9.33;;;4.50;;
26906;SDS011;14472;56.880;16.658;2023-04-15T07:26:31;7.57;;;4.20;;
26906;SDS011;14472;56.880;16.658;2023-04-15T07:28:57;6.80;;;4.30;;
26906;SDS011;14472;56.880;16.658;2023-04-15T07:31:25;8.00;;;5.57;;
26906;SDS011;14472;56.880;16.658;2023-04-15T07:33:51;7.87;;;5.37;;
26906;SDS011;14472;56.880;16.658;2023-04-15T07:36:17;7.13;;;4.67;;
26906;SDS011;14472;56.880;16.658;2023-04-15T07:38:43;8.20;;;4.63;;
26906;SDS011;14472;56.880;16.658;2023-04-15T07:41:09;5.60;;;4.27;;
26906;SDS011;14472;56.880;16.658;2023-04-15T07:43:35;8.63;;;4.30;;
26906;SDS011;14472;56.880;16.658;2023-04-15T07:46:00;5.73;;;3.83;;
26906;SDS011;14472;56.880;16.658;2023-04-15T07:48:26;7.87;;;4.13;;
26906;SDS011;14472;56.880;16.658;2023-04-15T07:50:52;4.73;;;3.63;;
26906;SDS011;14472;56.880;16.658;2023-04-15T07:53:18;5.77;;;3.70;;
26906;SDS011;14472;56.880;16.658;2023-04-15T07:55:44;8.10;;;4.07;;
26906;SDS011;14472;56.880;16.658;2023-04-15T07:58:10;7.03;;;3.97;;
26906;SDS011;14472;56.880;16.658;2023-04-15T08:00:36;5.73;;;3.77;;
26906;SDS011;14472;56.880;16.658;2023-04-15T08:03:02;7.37;;;3.90;;
26906;SDS011;14472;56.880;16.658;2023-04-15T08:05:28;6.77;;;3.80;;
26906;SDS011;14472;56.880;16.658;2023-04-15T08:07:54;6.27;;;4.10;;
26906;SDS011;14472;56.880;16.658;2023-04-15T08:10:20;6.40;;;3.53;;
26906;SDS011;14472;56.880;16.658;2023-04-15T08:12:46;6.37;;;3.87;;
26906;SDS011;14472;56.880;16.658;2023-04-15T08:15:13;7.07;;;3.93;;
26906;SDS011;14472;56.880;16.658;2023-04-15T08:17:39;5.57;;;3.73;;
26906;SDS011;14472;56.880;16.658;2023-04-15T08:20:05;7.63;;;3.63;;
26906;SDS011;14472;56.880;16.658;2023-04-15T08:22:31;5.83;;;3.70;;
26906;SDS011;14472;56.880;16.658;2023-04-15T08:24:57;8.97;;;4.40;;
26906;SDS011;14472;56.880;16.658;2023-04-15T08:27:23;5.03;;;3.33;;
26906;SDS011;14472;56.880;16.658;2023-04-15T08:29:49;5.13;;;3.80;;
26906;SDS011;14472;56.880;16.658;2023-04-15T08:32:15;4.90;;;3.57;;
26906;SDS011;14472;56.880;16.658;2023-04-15T08:34:41;6.47;;;4.30;;
26906;SDS011;14472;56.880;16.658;2023-04-15T08:37:06;5.40;;;3.90;;
26906;SDS011;14472;56.880;16.658;2023-04-15T08:39:32;6.40;;;4.17;;
26906;SDS011;14472;56.880;16.658;2023-04-15T08:41:59;6.33;;;3.87;;
26906;SDS011;14472;56.880;16.658;2023-04-15T08:44:32;7.07;;;4.27;;
26906;SDS011;14472;56.880;16.658;2023-04-15T08:47:01;7.10;;;3.63;;
26906;SDS011;14472;56.880;16.658;2023-04-15T08:49:28;8.23;;;4.37;;
26906;SDS011;14472;56.880;16.658;2023-04-15T08:51:55;5.97;;;3.97;;
26906;SDS011;14472;56.880;16.658;2023-04-15T08:54:23;5.80;;;4.10;;
26906;SDS011;14472;56.880;16.658;2023-04-15T08:56:50;4.30;;;3.67;;
26906;SDS011;14472;56.880;16.658;2023-04-15T08:59:16;6.57;;;4.47;;
26906;SDS011;14472;56.880;16.658;2023-04-15T09:01:42;6.03;;;4.10;;
26906;SDS011;14472;56.880;16.658;2023-04-15T09:04:10;5.70;;;4.00;;
26906;SDS011;14472;56.880;16.658;2023-04-15T09:06:36;5.10;;;4.23;;
26906;SDS011;14472;56.880;16.658;2023-04-15T09:09:04;4.57;;;3.63;;
26906;SDS011;14472;56.880;16.658;2023-04-15T09:11:30;5.20;;;4.30;;
26906;SDS011;14472;56.880;16.658;2023-04-15T09:13:56;5.83;;;4.30;;
26906;SDS011;14472;56.880;16.658;2023-04-15T09:16:21;6.47;;;4.53;;
26906;SDS011;14472;56.880;16.658;2023-04-15T09:18:48;7.40;;;4.37;;
26906;SDS011;14472;56.880;16.658;2023-04-15T09:21:15;6.53;;;4.60;;
26906;SDS011;14472;56.880;16.658;2023-04-15T09:23:53;5.47;;;4.50;;
26906;SDS011;14472;56.880;16.658;2023-04-15T09:26:33;8.80;;;4.50;;
26906;SDS011;14472;56.880;16.658;2023-04-15T09:29:07;7.53;;;4.80;;
26906;SDS011;14472;56.880;16.658;2023-04-15T09:31:35;8.17;;;4.50;;
26906;SDS011;14472;56.880;16.658;2023-04-15T09:34:01;6.37;;;4.53;;
26906;SDS011;14472;56.880;16.658;2023-04-15T09:36:27;12.23;;;4.60;;
26906;SDS011;14472;56.880;16.658;2023-04-15T09:38:58;6.23;;;4.17;;
26906;SDS011;14472;56.880;16.658;2023-04-15T09:41:25;6.33;;;4.40;;
26906;SDS011;14472;56.880;16.658;2023-04-15T09:43:51;6.70;;;4.70;;
26906;SDS011;14472;56.880;16.658;2023-04-15T09:46:17;6.97;;;4.70;;
26906;SDS011;14472;56.880;16.658;2023-04-15T09:48:46;7.50;;;5.00;;
26906;SDS011;14472;56.880;16.658;2023-04-15T09:51:36;5.70;;;4.80;;
26906;SDS011;14472;56.880;16.658;2023-04-15T09:54:02;5.67;;;4.80;;
26906;SDS011;14472;56.880;16.658;2023-04-15T12:22:50;7.83;;;5.90;;
26906;SDS011;14472;56.880;16.658;2023-04-15T12:25:37;7.53;;;6.00;;
26906;SDS011;14472;56.880;16.658;2023-04-15T12:28:09;7.77;;;6.00;;
26906;SDS011;14472;56.880;16.658;2023-04-15T12:30:36;7.77;;;5.77;;
26906;SDS011;14472;56.880;16.658;2023-04-15T12:33:13;8.60;;;5.70;;
26906;SDS011;14472;56.880;16.658;2023-04-15T12:35:40;7.90;;;6.30;;
26906;SDS011;14472;56.880;16.658;2023-04-15T12:38:06;11.97;;;6.60;;
26906;SDS011;14472;56.880;16.658;2023-04-15T12:40:34;8.23;;;6.00;;
26906;SDS011;14472;56.880;16.658;2023-04-15T12:42:59;9.33;;;6.73;;
26906;SDS011;14472;56.880;16.658;2023-04-15T12:45:25;9.03;;;7.03;;
26906;SDS011;14472;56.880;16.658;2023-04-15T12:47:51;10.13;;;7.00;;
26906;SDS011;14472;56.880;16.658;2023-04-15T12:50:17;11.50;;;10.00;;
26906;SDS011;14472;56.880;16.658;2023-04-15T12:52:42;9.57;;;6.27;;
26906;SDS011;14472;56.880;16.658;2023-04-15T12:55:08;11.30;;;7.80;;
26906;SDS011;14472;56.880;16.658;2023-04-15T12:57:34;9.47;;;6.60;;
26906;SDS011;14472;56.880;16.658;2023-04-15T13:00:00;9.90;;;7.60;;
26906;SDS011;14472;56.880;16.658;2023-04-15T13:02:26;9.40;;;6.10;;
26906;SDS011;14472;56.880;16.658;2023-04-15T13:04:55;8.87;;;6.00;;
26906;SDS011;14472;56.880;16.658;2023-04-15T13:07:21;13.23;;;6.93;;
26906;SDS011;14472;56.880;16.658;2023-04-15T13:09:47;9.33;;;6.10;;
26906;SDS011;14472;56.880;16.658;2023-04-15T13:12:12;11.40;;;6.37;;
26906;SDS011;14472;56.880;16.658;2023-04-15T13:14:40;10.50;;;6.53;;
26906;SDS011;14472;56.880;16.658;2023-04-15T13:17:06;12.60;;;6.10;;
26906;SDS011;14472;56.880;16.658;2023-04-15T13:19:34;14.57;;;5.83;;
26906;SDS011;14472;56.880;16.658;2023-04-15T13:22:01;11.00;;;5.73;;
26906;SDS011;14472;56.880;16.658;2023-04-15T13:24:27;9.97;;;5.83;;
26906;SDS011;14472;56.880;16.658;2023-04-15T13:26:53;14.20;;;5.87;;
26906;SDS011;14472;56.880;16.658;2023-04-15T13:29:19;12.10;;;6.53;;
26906;SDS011;14472;56.880;16.658;2023-04-15T13:31:47;13.20;;;6.10;;
26906;SDS011;14472;56.880;16.658;2023-04-15T13:34:13;10.50;;;5.97;;
26906;SDS011;14472;56.880;16.658;2023-04-15T13:36:38;11.37;;;5.63;;
26906;SDS011;14472;56.880;16.658;2023-04-15T13:39:04;9.17;;;5.33;;
26906;SDS011;14472;56.880;16.658;2023-04-15T13:41:30;10.53;;;5.50;;
26906;SDS011;14472;56.880;16.658;2023-04-15T13:43:56;12.77;;;5.97;;
26906;SDS011;14472;56.880;16.658;2023-04-15T13:46:22;11.50;;;5.87;;
26906;SDS011;14472;56.880;16.658;2023-04-15T13:48:49;12.03;;;6.00;;
26906;SDS011;14472;56.880;16.658;2023-04-15T13:51:15;7.40;;;5.37;;
26906;SDS011;14472;56.880;16.658;2023-04-15T13:53:41;10.13;;;5.63;;
26906;SDS011;14472;56.880;16.658;2023-04-15T13:56:07;12.23;;;5.10;;
26906;SDS011;14472;56.880;16.658;2023-04-15T13:58:36;8.57;;;5.13;;
26906;SDS011;14472;56.880;16.658;2023-04-15T14:01:02;11.07;;;5.50;;
26906;SDS011;14472;56.880;16.658;2023-04-15T14:03:29;10.53;;;6.03;;
26906;SDS011;14472;56.880;16.658;2023-04-15T14:05:54;14.07;;;5.83;;
26906;SDS011;14472;56.880;16.658;2023-04-15T14:08:23;12.07;;;5.53;;
26906;SDS011;14472;56.880;16.658;2023-04-15T14:10:49;11.20;;;5.67;;
26906;SDS011;14472;56.880;16.658;2023-04-15T14:13:15;9.93;;;5.43;;
26906;SDS011;14472;56.880;16.658;2023-04-15T14:15:44;13.20;;;6.20;;
26906;SDS011;14472;56.880;16.658;2023-04-15T14:18:11;10.53;;;5.67;;
26906;SDS011;14472;56.880;16.658;2023-04-15T14:20:37;15.70;;;5.70;;
26906;SDS011;14472;56.880;16.658;2023-04-15T14:23:03;11.37;;;5.70;;
26906;SDS011;14472;56.880;16.658;2023-04-15T14:25:30;13.13;;;5.67;;
26906;SDS011;14472;56.880;16.658;2023-04-15T14:27:56;14.77;;;6.03;;
26906;SDS011;14472;56.880;16.658;2023-04-15T14:30:23;11.90;;;5.87;;
26906;SDS011;14472;56.880;16.658;2023-04-15T14:32:48;15.77;;;5.80;;
26906;SDS011;14472;56.880;16.658;2023-04-15T14:35:14;11.60;;;5.77;;
26906;SDS011;14472;56.880;16.658;2023-04-15T14:37:40;9.97;;;5.90;;
26906;SDS011;14472;56.880;16.658;2023-04-15T14:40:06;13.67;;;5.83;;
26906;SDS011;14472;56.880;16.658;2023-04-15T14:42:32;9.73;;;5.57;;
26906;SDS011;14472;56.880;16.658;2023-04-15T14:44:58;12.77;;;6.20;;
26906;SDS011;14472;56.880;16.658;2023-04-15T14:47:24;8.80;;;6.20;;
26906;SDS011;14472;56.880;16.658;2023-04-15T14:49:51;14.97;;;6.80;;
26906;SDS011;14472;56.880;16.658;2023-04-15T14:52:16;9.70;;;5.47;;
26906;SDS011;14472;56.880;16.658;2023-04-15T14:54:42;14.37;;;6.47;;
26906;SDS011;14472;56.880;16.658;2023-04-15T14:59:43;14.37;;;6.93;;
26906;SDS011;14472;56.880;16.658;2023-04-15T15:02:09;16.37;;;6.47;;
26906;SDS011;14472;56.880;16.658;2023-04-15T15:04:35;15.37;;;6.83;;
26906;SDS011;14472;56.880;16.658;2023-04-15T15:07:02;15.80;;;7.27;;
26906;SDS011;14472;56.880;16.658;2023-04-15T15:09:28;12.20;;;6.80;;
26906;SDS011;14472;56.880;16.658;2023-04-15T15:11:55;13.30;;;6.80;;
26906;SDS011;14472;56.880;16.658;2023-04-15T15:14:21;14.43;;;7.33;;
26906;SDS011;14472;56.880;16.658;2023-04-15T15:16:47;11.60;;;6.70;;
26906;SDS011;14472;56.880;16.658;2023-04-15T15:19:15;13.43;;;6.63;;
26906;SDS011;14472;56.880;16.658;2023-04-15T15:21:41;12.77;;;6.93;;
26906;SDS011;14472;56.880;16.658;2023-04-15T15:24:07;14.07;;;6.73;;
26906;SDS011;14472;56.880;16.658;2023-04-15T15:26:32;15.97;;;7.67;;
26906;SDS011;14472;56.880;16.658;2023-04-15T15:28:58;14.30;;;6.27;;
26906;SDS011;14472;56.880;16.658;2023-04-15T15:31:25;13.10;;;7.00;;
26906;SDS011;14472;56.880;16.658;2023-04-15T15:33:51;12.00;;;6.83;;
26906;SDS011;14472;56.880;16.658;2023-04-15T15:36:17;12.47;;;6.80;;
26906;SDS011;14472;56.880;16.658;2023-04-15T15:38:42;11.87;;;6.70;;
26906;SDS011;14472;56.880;16.658;2023-04-15T15:41:13;13.80;;;6.87;;
26906;SDS011;14472;56.880;16.658;2023-04-15T15:43:39;12.03;;;6.50;;
26906;SDS011;14472;56.880;16.658;2023-04-15T15:46:05;12.10;;;6.70;;
26906;SDS011;14472;56.880;16.658;2023-04-15T16:11:59;12.70;;;6.33;;
26906;SDS011;14472;56.880;16.658;2023-04-15T16:14:26;8.70;;;5.53;;
26906;SDS011;14472;56.880;16.658;2023-04-15T16:16:52;13.60;;;6.13;;
26906;SDS011;14472;56.880;16.658;2023-04-15T16:19:19;14.63;;;6.47;;
26906;SDS011;14472;56.880;16.658;2023-04-15T16:21:45;13.13;;;6.10;;
26906;SDS011;14472;56.880;16.658;2023-04-15T16:24:11;11.13;;;5.90;;
26906;SDS011;14472;56.880;16.658;2023-04-15T16:26:36;13.33;;;6.10;;
26906;SDS011;14472;56.880;16.658;2023-04-15T16:29:02;14.73;;;6.17;;
26906;SDS011;14472;56.880;16.658;2023-04-15T16:31:28;13.40;;;6.37;;
26906;SDS011;14472;56.880;16.658;2023-04-15T16:33:54;12.80;;;6.27;;
26906;SDS011;14472;56.880;16.658;2023-04-15T16:36:20;11.50;;;6.27;;
26906;SDS011;14472;56.880;16.658;2023-04-15T16:38:45;16.83;;;6.50;;
26906;SDS011;14472;56.880;16.658;2023-04-15T16:41:12;12.73;;;5.77;;
26906;SDS011;14472;56.880;16.658;2023-04-15T16:43:39;10.57;;;6.50;;
26906;SDS011;14472;56.880;16.658;2023-04-15T16:46:05;10.40;;;6.53;;
26906;SDS011;14472;56.880;16.658;2023-04-15T16:48:32;14.67;;;6.10;;
26906;SDS011;14472;56.880;16.658;2023-04-15T16:51:00;11.23;;;5.70;;
26906;SDS011;14472;56.880;16.658;2023-04-15T16:53:25;8.67;;;6.03;;
26906;SDS011;14472;56.880;16.658;2023-04-15T16:55:51;12.37;;;6.17;;
26906;SDS011;14472;56.880;16.658;2023-04-15T16:58:17;14.20;;;6.43;;
26906;SDS011;14472;56.880;16.658;2023-04-15T17:00:44;10.50;;;6.30;;
26906;SDS011;14472;56.880;16.658;2023-04-15T17:03:10;12.70;;;6.90;;
26906;SDS011;14472;56.880;16.658;2023-04-15T17:05:36;15.27;;;6.40;;
26906;SDS011;14472;56.880;16.658;2023-04-15T17:08:02;10.87;;;5.90;;
26906;SDS011;14472;56.880;16.658;2023-04-15T17:10:29;15.67;;;6.17;;
26906;SDS011;14472;56.880;16.658;2023-04-15T17:12:55;15.83;;;6.30;;
26906;SDS011;14472;56.880;16.658;2023-04-15T17:15:22;11.70;;;5.77;;
26906;SDS011;14472;56.880;16.658;2023-04-15T17:17:47;11.27;;;6.00;;
26906;SDS011;14472;56.880;16.658;2023-04-15T17:20:15;13.03;;;6.33;;
26906;SDS011;14472;56.880;16.658;2023-04-15T17:22:44;12.67;;;5.77;;
26906;SDS011;14472;56.880;16.658;2023-04-15T18:31:11;10.60;;;6.00;;
26906;SDS011;14472;56.880;16.658;2023-04-15T18:33:37;12.50;;;6.17;;
26906;SDS011;14472;56.880;16.658;2023-04-15T18:36:03;12.37;;;6.43;;
26906;SDS011;14472;56.880;16.658;2023-04-15T18:38:29;12.80;;;6.20;;
26906;SDS011;14472;56.880;16.658;2023-04-15T18:40:55;10.73;;;5.90;;
26906;SDS011;14472;56.880;16.658;2023-04-15T18:43:21;13.20;;;5.73;;
26906;SDS011;14472;56.880;16.658;2023-04-15T18:45:47;20.40;;;14.43;;
26906;SDS011;14472;56.880;16.658;2023-04-15T18:48:12;15.33;;;6.47;;
26906;SDS011;14472;56.880;16.658;2023-04-15T18:50:40;11.50;;;5.50;;
26906;SDS011;14472;56.880;16.658;2023-04-15T18:53:06;13.20;;;6.40;;
26906;SDS011;14472;56.880;16.658;2023-04-15T18:55:32;11.40;;;5.53;;
26906;SDS011;14472;56.880;16.658;2023-04-15T18:57:59;15.07;;;6.03;;
26906;SDS011;14472;56.880;16.658;2023-04-15T19:00:25;13.50;;;6.53;;
26906;SDS011;14472;56.880;16.658;2023-04-15T19:02:51;11.03;;;6.70;;
26906;SDS011;14472;56.880;16.658;2023-04-15T19:05:16;17.53;;;6.60;;
26906;SDS011;14472;56.880;16.658;2023-04-15T19:07:42;13.43;;;6.37;;
26906;SDS011;14472;56.880;16.658;2023-04-15T19:10:09;10.33;;;5.63;;
26906;SDS011;14472;56.880;16.658;2023-04-15T19:12:35;11.97;;;5.90;;
26906;SDS011;14472;56.880;16.658;2023-04-15T19:15:01;10.00;;;5.67;;
26906;SDS011;14472;56.880;16.658;2023-04-15T19:17:27;13.63;;;6.13;;
26906;SDS011;14472;56.880;16.658;2023-04-15T19:19:53;8.87;;;5.27;;
26906;SDS011;14472;56.880;16.658;2023-04-15T19:22:20;12.97;;;6.10;;
26906;SDS011;14472;56.880;16.658;2023-04-15T19:24:50;11.50;;;5.97;;
26906;SDS011;14472;56.880;16.658;2023-04-15T19:27:16;11.80;;;6.00;;
26906;SDS011;14472;56.880;16.658;2023-04-15T19:29:41;13.57;;;6.07;;
26906;SDS011;14472;56.880;16.658;2023-04-15T19:32:07;12.40;;;5.57;;
26906;SDS011;14472;56.880;16.658;2023-04-15T19:34:33;13.77;;;5.43;;
26906;SDS011;14472;56.880;16.658;2023-04-15T19:36:59;12.13;;;6.03;;
26906;SDS011;14472;56.880;16.658;2023-04-15T19:39:25;11.90;;;6.60;;
26906;SDS011;14472;56.880;16.658;2023-04-15T19:41:51;12.07;;;6.37;;
26906;SDS011;14472;56.880;16.658;2023-04-15T19:44:19;13.93;;;6.23;;
26906;SDS011;14472;56.880;16.658;2023-04-15T19:46:44;13.13;;;6.30;;
26906;SDS011;14472;56.880;16.658;2023-04-15T19:49:13;13.90;;;6.20;;
26906;SDS011;14472;56.880;16.658;2023-04-15T19:51:40;11.80;;;6.03;;
26906;SDS011;14472;56.880;16.658;2023-04-15T19:54:06;10.90;;;5.63;;
26906;SDS011;14472;56.880;16.658;2023-04-15T19:56:32;12.10;;;5.80;;
26906;SDS011;14472;56.880;16.658;2023-04-15T19:58:58;13.77;;;6.00;;
26906;SDS011;14472;56.880;16.658;2023-04-15T20:01:24;14.10;;;5.87;;
26906;SDS011;14472;56.880;16.658;2023-04-15T20:03:51;13.80;;;5.73;;
26906;SDS011;14472;56.880;16.658;2023-04-15T20:06:17;11.73;;;6.10;;
26906;SDS011;14472;56.880;16.658;2023-04-15T20:08:43;15.93;;;6.00;;
26906;SDS011;14472;56.880;16.658;2023-04-15T20:11:09;13.80;;;6.27;;
26906;SDS011;14472;56.880;16.658;2023-04-15T20:13:36;16.40;;;6.33;;
26906;SDS011;14472;56.880;16.658;2023-04-15T20:16:02;8.73;;;5.67;;
26906;SDS011;14472;56.880;16.658;2023-04-15T20:18:30;10.63;;;5.67;;
26906;SDS011;14472;56.880;16.658;2023-04-15T20:20:55;11.83;;;5.33;;
26906;SDS011;14472;56.880;16.658;2023-04-15T20:23:24;14.53;;;5.70;;
26906;SDS011;14472;56.880;16.658;2023-04-15T20:25:50;14.90;;;5.27;;
26906;SDS011;14472;56.880;16.658;2023-04-15T20:28:16;16.20;;;6.07;;
26906;SDS011;14472;56.880;16.658;2023-04-15T20:30:43;15.20;;;5.83;;
26906;SDS011;14472;56.880;16.658;2023-04-15T20:33:11;15.07;;;5.30;;
26906;SDS011;14472;56.880;16.658;2023-04-15T20:38:47;10.30;;;5.60;;
26906;SDS011;14472;56.880;16.658;2023-04-15T20:41:13;13.00;;;5.43;;
26906;SDS011;14472;56.880;16.658;2023-04-15T20:43:39;12.33;;;5.30;;
26906;SDS011;14472;56.880;16.658;2023-04-15T20:46:05;12.13;;;5.17;;
26906;SDS011;14472;56.880;16.658;2023-04-15T20:48:31;13.10;;;5.20;;
26906;SDS011;14472;56.880;16.658;2023-04-15T20:50:58;12.37;;;5.30;;
26906;SDS011;14472;56.880;16.658;2023-04-15T20:53:24;11.63;;;5.17;;
26906;SDS011;14472;56.880;16.658;2023-04-15T20:55:50;11.67;;;5.10;;
26906;SDS011;14472;56.880;16.658;2023-04-15T20:58:16;13.80;;;5.23;;
26906;SDS011;14472;56.880;16.658;2023-04-15T21:00:41;10.73;;;5.07;;
26906;SDS011;14472;56.880;16.658;2023-04-15T21:03:09;11.10;;;5.37;;
26906;SDS011;14472;56.880;16.658;2023-04-15T21:05:35;11.97;;;5.10;;
26906;SDS011;14472;56.880;16.658;2023-04-15T21:08:01;9.40;;;5.10;;
26906;SDS011;14472;56.880;16.658;2023-04-15T21:10:27;11.60;;;5.37;;
26906;SDS011;14472;56.880;16.658;2023-04-15T21:12:58;11.03;;;5.37;;
26906;SDS011;14472;56.880;16.658;2023-04-15T22:26:27;11.83;;;5.50;;
26906;SDS011;14472;56.880;16.658;2023-04-15T22:28:52;14.63;;;5.27;;
26906;SDS011;14472;56.880;16.658;2023-04-15T22:31:19;11.50;;;4.83;;
26906;SDS011;14472;56.880;16.658;2023-04-15T22:33:45;13.53;;;5.37;;
26906;SDS011;14472;56.880;16.658;2023-04-15T22:36:11;12.17;;;4.87;;
26906;SDS011;14472;56.880;16.658;2023-04-15T22:38:37;10.80;;;5.20;;
26906;SDS011;14472;56.880;16.658;2023-04-15T22:41:03;12.37;;;5.13;;
26906;SDS011;14472;56.880;16.658;2023-04-15T22:43:30;14.50;;;5.30;;
26906;SDS011;14472;56.880;16.658;2023-04-15T22:45:56;10.43;;;4.40;;
26906;SDS011;14472;56.880;16.658;2023-04-15T22:48:22;12.60;;;4.90;;
26906;SDS011;14472;56.880;16.658;2023-04-15T22:50:47;10.20;;;4.60;;
26906;SDS011;14472;56.880;16.658;2023-04-15T22:53:14;14.40;;;5.23;;
26906;SDS011;14472;56.880;16.658;2023-04-15T22:55:47;15.13;;;4.70;;
26906;SDS011;14472;56.880;16.658;2023-04-15T22:58:13;9.67;;;5.03;;
26906;SDS011;14472;56.880;16.658;2023-04-15T23:00:40;14.07;;;4.93;;
26906;SDS011;14472;56.880;16.658;2023-04-15T23:03:06;14.30;;;5.10;;
26906;SDS011;14472;56.880;16.658;2023-04-15T23:05:32;10.67;;;4.37;;
26906;SDS011;14472;56.880;16.658;2023-04-15T23:07:57;14.17;;;5.17;;
26906;SDS011;14472;56.880;16.658;2023-04-15T23:10:23;12.53;;;5.40;;
26906;SDS011;14472;56.880;16.658;2023-04-15T23:12:49;10.77;;;5.43;;
26906;SDS011;14472;56.880;16.658;2023-04-15T23:15:15;10.53;;;4.93;;
26906;SDS011;14472;56.880;16.658;2023-04-15T23:17:40;12.70;;;4.93;;
26906;SDS011;14472;56.880;16.658;2023-04-15T23:20:07;12.20;;;5.30;;
26906;SDS011;14472;56.880;16.658;2023-04-15T23:22:33;11.97;;;5.13;;
26906;SDS011;14472;56.880;16.658;2023-04-15T23:25:02;12.87;;;5.53;;
26906;SDS011;14472;56.880;16.658;2023-04-15T23:27:28;10.80;;;5.03;;
26906;SDS011;14472;56.880;16.658;2023-04-15T23:29:54;11.60;;;5.03;;
26906;SDS011;14472;56.880;16.658;2023-04-15T23:32:20;14.60;;;5.90;;
26906;SDS011;14472;56.880;16.658;2023-04-15T23:34:46;11.97;;;5.23;;
26906;SDS011;14472;56.880;16.658;2023-04-15T23:37:15;11.73;;;4.60;;
26906;SDS011;14472;56.880;16.658;2023-04-15T23:39:41;13.57;;;5.37;;
26906;SDS011;14472;56.880;16.658;2023-04-15T23:42:07;11.20;;;5.40;;
26906;SDS011;14472;56.880;16.658;2023-04-15T23:44:33;11.20;;;5.23;;
26906;SDS011;14472;56.880;16.658;2023-04-15T23:47:01;8.30;;;4.90;;
26906;SDS011;14472;56.880;16.658;2023-04-15T23:49:29;13.23;;;5.27;;
26906;SDS011;14472;56.880;16.658;2023-04-15T23:51:55;10.30;;;4.77;;
26906;SDS011;14472;56.880;16.658;2023-04-15T23:54:21;12.17;;;4.97;;
